createdAt,value
2017-06-15T00:02:05.803Z,10.60
2017-06-15T00:04:34.620Z,10.00
2017-06-15T00:07:03.482Z,9.50
2017-06-15T00:09:32.294Z,9.87
2017-06-15T00:12:01.106Z,10.80
2017-06-15T00:14:29.976Z,10.23
2017-06-15T00:16:58.790Z,10.37
2017-06-15T00:19:27.639Z,10.30
2017-06-15T00:21:56.471Z,10.50
2017-06-15T00:24:25.299Z,10.33
2017-06-15T00:26:54.455Z,10.53
2017-06-15T00:29:23.243Z,10.03
2017-06-15T00:31:52.071Z,9.70
2017-06-15T00:34:20.967Z,10.40
2017-06-15T00:36:49.775Z,10.27
2017-06-15T00:39:18.591Z,10.23
2017-06-15T00:41:47.499Z,10.60
2017-06-15T00:44:16.314Z,10.37
2017-06-15T00:46:45.115Z,11.00
2017-06-15T00:49:13.955Z,10.87
2017-06-15T00:51:42.882Z,10.40
2017-06-15T00:54:11.751Z,11.13
2017-06-15T00:56:40.570Z,11.40
2017-06-15T00:59:09.384Z,11.67
2017-06-15T01:01:38.240Z,10.50
2017-06-15T01:04:07.051Z,11.17
2017-06-15T01:06:35.903Z,11.53
2017-06-15T01:09:04.814Z,10.67
2017-06-15T01:11:33.622Z,10.53
2017-06-15T01:14:02.569Z,10.73
2017-06-15T01:16:31.435Z,10.60
2017-06-15T01:19:00.246Z,11.03
2017-06-15T01:21:29.059Z,11.87
2017-06-15T01:23:57.931Z,11.17
2017-06-15T01:26:26.770Z,11.10
2017-06-15T01:28:55.631Z,10.70
2017-06-15T01:31:24.439Z,11.67
2017-06-15T01:33:53.360Z,10.43
2017-06-15T01:36:22.216Z,11.13
2017-06-15T01:38:51.044Z,10.73
2017-06-15T01:41:20.067Z,12.03
2017-06-15T01:43:48.878Z,10.83
2017-06-15T01:46:17.722Z,12.40
2017-06-15T01:48:46.620Z,11.83
2017-06-15T01:51:15.431Z,11.50
2017-06-15T01:53:44.272Z,11.57
2017-06-15T01:56:13.083Z,11.30
2017-06-15T01:58:41.918Z,11.90
2017-06-15T02:01:10.771Z,11.90
2017-06-15T02:03:39.582Z,11.40
2017-06-15T02:06:08.398Z,11.03
2017-06-15T02:08:37.247Z,11.63
2017-06-15T02:11:06.074Z,11.50
2017-06-15T02:13:35.021Z,11.17
2017-06-15T02:16:03.827Z,11.20
2017-06-15T02:18:32.646Z,11.47
2017-06-15T02:21:01.499Z,11.07
2017-06-15T02:23:30.302Z,10.60
2017-06-15T02:25:59.111Z,11.07
2017-06-15T02:28:27.957Z,11.93
2017-06-15T02:30:56.774Z,12.33
2017-06-15T02:33:25.764Z,11.70
2017-06-15T02:35:54.595Z,11.70
2017-06-15T02:38:23.403Z,11.60
2017-06-15T02:40:52.242Z,11.10
2017-06-15T02:43:21.074Z,10.70
2017-06-15T02:45:49.898Z,10.60
2017-06-15T02:48:18.743Z,11.13
2017-06-15T02:50:47.542Z,11.20
2017-06-15T02:53:16.367Z,10.70
2017-06-15T02:55:45.212Z,10.53
2017-06-15T02:58:14.040Z,10.80
2017-06-15T03:00:43.025Z,11.90
2017-06-15T03:03:11.880Z,10.70
2017-06-15T03:05:40.689Z,11.30
2017-06-15T03:08:09.679Z,11.20
2017-06-15T03:10:38.487Z,10.83
2017-06-15T03:13:07.316Z,11.10
2017-06-15T03:15:36.171Z,11.27
2017-06-15T03:18:04.985Z,10.23
2017-06-15T03:20:33.816Z,11.20
2017-06-15T03:23:02.675Z,10.90
2017-06-15T03:25:31.528Z,11.17
2017-06-15T03:28:00.331Z,11.60
2017-06-15T03:30:29.177Z,11.70
2017-06-15T03:32:57.983Z,11.40
2017-06-15T03:35:26.802Z,12.30
2017-06-15T03:37:55.638Z,13.50
2017-06-15T03:40:24.460Z,13.07
2017-06-15T03:42:53.303Z,13.53
2017-06-15T03:45:22.127Z,13.10
2017-06-15T03:47:50.938Z,14.93
2017-06-15T03:50:19.927Z,14.07
2017-06-15T03:52:48.723Z,14.73
2017-06-15T03:55:18.214Z,15.40
2017-06-15T03:57:47.058Z,13.70
2017-06-15T04:00:15.859Z,13.30
2017-06-15T04:02:44.689Z,13.30
2017-06-15T04:05:13.502Z,13.90
2017-06-15T04:07:42.306Z,13.53
2017-06-15T04:10:11.159Z,13.17
2017-06-15T04:12:39.999Z,12.50
2017-06-15T04:15:08.806Z,13.47
2017-06-15T04:17:37.638Z,12.77
2017-06-15T04:20:06.450Z,12.60
2017-06-15T04:22:35.263Z,12.40
2017-06-15T04:25:04.108Z,12.40
2017-06-15T04:27:32.918Z,12.83
2017-06-15T04:30:01.769Z,12.93
2017-06-15T04:32:30.591Z,12.90
2017-06-15T04:34:59.391Z,12.03
2017-06-15T04:37:28.232Z,13.47
2017-06-15T04:39:57.040Z,12.67
2017-06-15T04:42:25.856Z,13.20
2017-06-15T04:44:54.738Z,12.60
2017-06-15T04:47:23.563Z,13.50
2017-06-15T04:49:52.430Z,12.70
2017-06-15T04:52:21.535Z,13.17
2017-06-15T04:54:50.343Z,13.90
2017-06-15T04:57:19.937Z,13.47
2017-06-15T04:59:48.743Z,13.30
2017-06-15T05:02:17.578Z,14.90
2017-06-15T05:04:46.419Z,13.90
2017-06-15T05:07:16.086Z,16.97
2017-06-15T05:09:44.904Z,14.43
2017-06-15T05:12:14.418Z,15.37
2017-06-15T05:14:43.239Z,14.70
2017-06-15T05:17:12.087Z,14.07
2017-06-15T05:19:40.990Z,15.20
2017-06-15T05:22:09.827Z,15.00
2017-06-15T05:24:38.656Z,15.03
2017-06-15T05:27:07.507Z,15.03
2017-06-15T05:29:36.310Z,14.83
2017-06-15T05:32:05.262Z,15.03
2017-06-15T05:34:34.103Z,14.50
2017-06-15T05:37:02.949Z,15.50
2017-06-15T05:39:31.799Z,15.03
2017-06-15T05:42:02.266Z,14.57
2017-06-15T05:44:31.079Z,15.90
2017-06-15T05:46:59.946Z,14.87
2017-06-15T05:49:28.783Z,14.57
2017-06-15T05:51:57.601Z,15.03
2017-06-15T05:54:26.447Z,14.53
2017-06-15T05:56:55.304Z,15.17
2017-06-15T05:59:24.143Z,14.60
2017-06-15T06:01:53.000Z,14.87
2017-06-15T06:04:21.811Z,14.90
2017-06-15T06:06:50.671Z,15.67
2017-06-15T06:09:19.566Z,14.70
2017-06-15T06:11:48.459Z,14.63
2017-06-15T06:14:17.307Z,14.40
2017-06-15T06:16:46.151Z,14.33
2017-06-15T06:19:15.019Z,14.77
2017-06-15T06:21:43.845Z,13.40
2017-06-15T06:24:12.925Z,15.13
2017-06-15T06:26:41.762Z,12.67
2017-06-15T06:29:10.579Z,12.90
2017-06-15T06:31:39.424Z,12.87
2017-06-15T06:34:08.231Z,12.37
2017-06-15T06:36:37.055Z,10.20
2017-06-15T06:39:05.922Z,10.40
2017-06-15T06:41:34.754Z,9.03
2017-06-15T06:44:03.572Z,9.87
2017-06-15T06:46:32.421Z,9.80
2017-06-15T06:49:01.245Z,9.60
2017-06-15T06:51:30.127Z,10.03
2017-06-15T06:53:58.954Z,8.87
2017-06-15T06:56:27.783Z,9.20
2017-06-15T06:58:56.891Z,10.87
2017-06-15T07:01:25.707Z,9.73
2017-06-15T07:03:54.515Z,9.40
2017-06-15T07:06:23.552Z,9.40
2017-06-15T07:08:52.350Z,9.67
2017-06-15T07:11:21.233Z,9.97
2017-06-15T07:13:50.056Z,8.83
2017-06-15T07:16:18.866Z,9.80
2017-06-15T07:18:47.711Z,9.80
2017-06-15T07:21:16.535Z,9.03
2017-06-15T07:23:45.401Z,9.93
2017-06-15T07:26:14.220Z,9.20
2017-06-15T07:28:43.018Z,9.33
2017-06-15T07:31:11.859Z,8.93
2017-06-15T07:33:40.674Z,8.93
2017-06-15T07:36:09.520Z,9.30
2017-06-15T07:38:38.360Z,9.47
2017-06-15T07:41:07.287Z,8.37
2017-06-15T07:43:36.087Z,9.40
2017-06-15T07:46:04.936Z,9.40
2017-06-15T07:48:33.754Z,9.70
2017-06-15T07:51:02.592Z,9.77
2017-06-15T07:53:31.701Z,9.70
2017-06-15T07:56:00.562Z,9.00
2017-06-15T07:58:29.383Z,9.23
2017-06-15T08:00:58.196Z,9.40
2017-06-15T08:03:27.031Z,9.10
2017-06-15T08:05:55.844Z,9.40
2017-06-15T08:08:24.678Z,9.37
2017-06-15T08:10:53.488Z,8.77
2017-06-15T08:13:22.303Z,9.33
2017-06-15T08:15:51.140Z,9.50
2017-06-15T08:18:19.945Z,8.70
2017-06-15T08:20:48.746Z,9.20
2017-06-15T08:23:17.691Z,8.60
2017-06-15T08:25:46.508Z,8.80
2017-06-15T08:28:15.333Z,8.70
2017-06-15T08:30:44.170Z,9.87
2017-06-15T08:33:13.050Z,9.17
2017-06-15T08:35:41.861Z,9.40
2017-06-15T08:38:10.694Z,9.00
2017-06-15T08:40:39.507Z,9.13
2017-06-15T08:43:08.359Z,9.30
2017-06-15T08:45:37.159Z,8.37
2017-06-15T08:48:05.979Z,9.20
2017-06-15T08:50:34.891Z,9.33
2017-06-15T08:53:03.705Z,9.00
2017-06-15T08:55:32.527Z,9.10
2017-06-15T08:58:01.435Z,8.97
2017-06-15T09:00:30.254Z,9.90
2017-06-15T09:02:59.064Z,9.20
2017-06-15T09:05:27.897Z,8.50
2017-06-15T09:07:56.720Z,8.73
2017-06-15T09:10:25.522Z,8.30
2017-06-15T09:12:54.378Z,9.10
2017-06-15T09:15:23.186Z,8.83
2017-06-15T09:17:52.040Z,7.67
2017-06-15T09:20:20.847Z,8.23
2017-06-15T09:22:49.658Z,8.43
2017-06-15T09:25:18.500Z,8.20
2017-06-15T09:27:47.312Z,8.20
2017-06-15T09:30:16.147Z,8.20
2017-06-15T09:32:44.990Z,8.20
2017-06-15T09:35:13.793Z,8.03
2017-06-15T09:37:42.661Z,8.30
2017-06-15T09:40:11.507Z,7.70
2017-06-15T09:42:40.314Z,7.73
2017-06-15T09:45:09.126Z,8.60
2017-06-15T09:47:37.983Z,8.40
2017-06-15T09:50:06.842Z,7.87
2017-06-15T09:52:35.685Z,8.03
2017-06-15T09:55:04.507Z,9.27
2017-06-15T09:57:33.591Z,7.63
2017-06-15T10:00:02.475Z,8.00
2017-06-15T10:02:31.319Z,6.97
2017-06-15T10:05:00.166Z,7.10
2017-06-15T10:07:28.987Z,6.90
2017-06-15T10:09:57.975Z,6.73
2017-06-15T10:12:26.783Z,9.67
2017-06-15T10:14:55.602Z,6.27
2017-06-15T10:17:24.442Z,6.20
2017-06-15T10:19:53.248Z,7.47
2017-06-15T10:22:22.082Z,8.07
2017-06-15T10:24:50.904Z,7.87
2017-06-15T10:27:19.736Z,7.33
2017-06-15T10:29:48.558Z,8.07
2017-06-15T10:32:17.376Z,7.90
2017-06-15T10:34:46.168Z,7.43
2017-06-15T10:37:15.007Z,7.50
2017-06-15T10:39:43.819Z,6.97
2017-06-15T10:42:12.648Z,7.10
2017-06-15T10:44:41.505Z,7.50
2017-06-15T10:47:10.334Z,7.30
2017-06-15T10:49:39.147Z,7.27
2017-06-15T10:52:07.976Z,7.43
2017-06-15T10:54:36.792Z,7.80
2017-06-15T10:57:05.637Z,7.83
2017-06-15T10:59:34.463Z,8.40
2017-06-15T11:02:03.279Z,7.07
2017-06-15T11:04:32.086Z,7.10
2017-06-15T11:07:01.001Z,8.30
2017-06-15T11:09:29.798Z,7.80
2017-06-15T11:11:58.662Z,7.40
2017-06-15T11:14:27.464Z,7.37
2017-06-15T11:16:56.371Z,7.03
2017-06-15T11:19:25.204Z,7.60
2017-06-15T11:21:54.084Z,8.03
2017-06-15T11:24:23.886Z,7.20
2017-06-15T11:26:52.725Z,7.97
2017-06-15T11:29:21.626Z,7.93
2017-06-15T11:31:50.551Z,7.57
2017-06-15T11:34:19.351Z,7.73
2017-06-15T11:36:48.206Z,7.10
2017-06-15T11:39:17.019Z,7.20
2017-06-15T11:41:45.876Z,8.37
2017-06-15T11:44:14.703Z,7.30
2017-06-15T11:46:43.547Z,7.57
2017-06-15T11:49:12.392Z,7.53
2017-06-15T11:51:41.203Z,7.20
2017-06-15T11:54:10.016Z,8.00
2017-06-15T11:56:38.863Z,8.40
2017-06-15T11:59:07.658Z,7.90
2017-06-15T12:01:36.502Z,7.10
2017-06-15T12:04:05.335Z,7.30
2017-06-15T12:06:34.191Z,7.53
2017-06-15T12:09:03.018Z,8.47
2017-06-15T12:11:31.862Z,8.40
2017-06-15T12:14:00.663Z,8.40
2017-06-15T12:16:29.624Z,7.97
2017-06-15T12:18:58.443Z,8.37
2017-06-15T12:21:27.252Z,8.07
2017-06-15T12:23:56.067Z,8.17
2017-06-15T12:26:24.871Z,9.33
2017-06-15T12:28:53.727Z,9.57
2017-06-15T12:31:22.597Z,9.40
2017-06-15T12:33:51.467Z,8.87
2017-06-15T12:36:20.303Z,8.77
2017-06-15T12:38:49.124Z,9.33
2017-06-15T12:41:17.959Z,8.90
2017-06-15T12:43:46.803Z,9.60
2017-06-15T12:46:15.611Z,9.13
2017-06-15T12:48:44.426Z,9.10
2017-06-15T12:51:13.263Z,8.70
2017-06-15T12:53:42.072Z,9.07
2017-06-15T12:56:10.884Z,9.00
2017-06-15T12:58:39.737Z,8.20
2017-06-15T13:01:08.579Z,8.70
2017-06-15T13:03:37.410Z,8.27
2017-06-15T13:06:06.313Z,8.67
2017-06-15T13:08:35.180Z,9.30
2017-06-15T13:11:04.032Z,8.20
2017-06-15T13:13:32.951Z,8.87
2017-06-15T13:16:01.759Z,9.40
2017-06-15T13:18:30.610Z,9.23
2017-06-15T13:20:59.449Z,8.47
2017-06-15T13:23:28.255Z,9.27
2017-06-15T13:25:57.203Z,9.60
2017-06-15T13:28:26.039Z,8.90
2017-06-15T13:30:54.848Z,9.10
2017-06-15T13:33:23.706Z,8.30
2017-06-15T13:35:52.607Z,9.37
2017-06-15T13:38:21.435Z,8.13
2017-06-15T13:40:50.254Z,8.40
2017-06-15T13:43:19.060Z,8.20
2017-06-15T13:45:47.890Z,8.70
2017-06-15T13:48:16.710Z,8.07
2017-06-15T13:50:45.522Z,7.80
2017-06-15T13:53:14.364Z,7.50
2017-06-15T13:55:43.162Z,9.10
2017-06-15T13:58:11.977Z,8.53
2017-06-15T14:00:40.827Z,7.80
2017-06-15T14:03:09.631Z,7.70
2017-06-15T14:05:38.434Z,7.83
2017-06-15T14:08:07.283Z,7.90
2017-06-15T14:10:36.094Z,7.13
2017-06-15T14:13:04.906Z,7.40
2017-06-15T14:15:33.738Z,7.40
2017-06-15T14:18:02.537Z,7.03
2017-06-15T14:20:31.428Z,7.60
2017-06-15T14:23:00.294Z,7.80
2017-06-15T14:25:29.112Z,7.40
2017-06-15T14:27:57.982Z,7.87
2017-06-15T14:30:26.789Z,7.40
2017-06-15T14:32:55.635Z,7.37
2017-06-15T14:35:24.448Z,6.80
2017-06-15T14:37:53.887Z,7.50
2017-06-15T14:40:22.710Z,6.90
2017-06-15T14:42:51.547Z,6.90
2017-06-15T14:45:20.355Z,6.27
2017-06-15T14:47:49.171Z,7.07
2017-06-15T14:50:17.988Z,7.40
2017-06-15T14:52:46.833Z,7.33
2017-06-15T14:55:15.658Z,6.70
2017-06-15T14:57:44.463Z,6.97
2017-06-15T15:00:13.303Z,7.10
2017-06-15T15:02:42.142Z,7.20
2017-06-15T15:05:10.946Z,6.80
2017-06-15T15:07:39.803Z,7.03
2017-06-15T15:10:08.641Z,7.30
2017-06-15T15:12:37.490Z,6.97
2017-06-15T15:15:06.326Z,6.13
2017-06-15T15:17:35.251Z,5.80
2017-06-15T15:20:04.074Z,5.90
2017-06-15T15:22:32.911Z,5.63
2017-06-15T15:25:01.718Z,4.90
2017-06-15T15:27:30.526Z,5.60
2017-06-15T15:29:59.367Z,4.63
2017-06-15T15:32:28.175Z,5.40
2017-06-15T15:34:56.982Z,5.17
2017-06-15T15:37:25.847Z,5.00
2017-06-15T15:39:54.646Z,4.87
2017-06-15T15:42:23.478Z,5.23
2017-06-15T15:44:52.312Z,5.23
2017-06-15T15:47:21.118Z,5.23
2017-06-15T15:49:49.955Z,4.97
2017-06-15T15:52:18.750Z,4.97
2017-06-15T15:54:47.585Z,5.17
2017-06-15T15:57:16.512Z,5.07
2017-06-15T15:59:45.314Z,5.30
2017-06-15T16:02:14.115Z,4.87
2017-06-15T16:04:42.975Z,5.20
2017-06-15T16:07:11.816Z,4.60
2017-06-15T16:09:40.627Z,4.70
2017-06-15T16:12:09.475Z,4.30
2017-06-15T16:14:38.274Z,4.30
2017-06-15T16:17:07.104Z,5.10
2017-06-15T16:19:35.934Z,4.90
2017-06-15T16:22:04.748Z,5.00
2017-06-15T16:24:33.551Z,4.93
2017-06-15T16:27:02.427Z,5.10
2017-06-15T16:29:31.267Z,5.23
2017-06-15T16:32:00.059Z,5.87
2017-06-15T16:34:28.857Z,5.47
2017-06-15T16:36:57.706Z,5.63
2017-06-15T16:39:26.510Z,5.70
2017-06-15T16:41:55.330Z,5.87
2017-06-15T16:44:24.304Z,6.20
2017-06-15T16:46:53.102Z,5.80
2017-06-15T16:49:21.934Z,5.80
2017-06-15T16:51:50.803Z,5.47
2017-06-15T16:54:19.626Z,6.13
2017-06-15T16:56:48.779Z,6.07
2017-06-15T16:59:17.612Z,5.80
2017-06-15T17:01:46.406Z,6.10
2017-06-15T17:04:15.834Z,6.33
2017-06-15T17:06:44.650Z,6.80
2017-06-15T17:09:13.530Z,6.83
2017-06-15T17:11:42.470Z,6.93
2017-06-15T17:14:11.327Z,6.87
2017-06-15T17:16:40.163Z,6.33
2017-06-15T17:19:08.990Z,6.20
2017-06-15T17:21:37.800Z,7.00
2017-06-15T17:24:06.647Z,6.00
2017-06-15T17:26:35.452Z,6.50
2017-06-15T17:29:04.302Z,6.27
2017-06-15T17:31:33.380Z,7.20
2017-06-15T17:34:02.227Z,6.77
2017-06-15T17:36:31.073Z,6.60
2017-06-15T17:38:59.894Z,6.43
2017-06-15T17:41:28.759Z,7.50
2017-06-15T17:43:57.665Z,7.93
2017-06-15T17:46:26.479Z,7.40
2017-06-15T17:48:55.296Z,7.30
2017-06-15T17:51:24.175Z,7.40
2017-06-15T17:53:52.988Z,7.00
2017-06-15T17:56:21.850Z,7.30
2017-06-15T17:58:50.990Z,7.60
2017-06-15T18:01:19.824Z,8.50
2017-06-15T18:03:48.630Z,7.50
2017-06-15T18:06:17.481Z,8.00
2017-06-15T18:08:46.378Z,7.77
2017-06-15T18:11:15.234Z,7.80
2017-06-15T18:13:44.050Z,7.60
2017-06-15T18:16:12.855Z,8.53
2017-06-15T18:18:41.746Z,9.33
2017-06-15T18:21:10.679Z,9.77
2017-06-15T18:23:39.491Z,10.60
2017-06-15T18:26:08.323Z,9.70
2017-06-15T18:28:37.149Z,9.13
2017-06-15T18:31:06.035Z,9.27
2017-06-15T18:33:34.897Z,10.00
2017-06-15T18:36:03.704Z,9.13
2017-06-15T18:38:32.879Z,10.07
2017-06-15T18:41:01.685Z,12.17
2017-06-15T18:43:30.568Z,10.90
2017-06-15T18:45:59.419Z,10.23
2017-06-15T18:48:28.365Z,10.17
2017-06-15T18:50:57.249Z,10.33
2017-06-15T18:53:26.055Z,10.57
2017-06-15T18:55:54.870Z,10.00
2017-06-15T18:58:23.838Z,10.73
2017-06-15T19:00:52.695Z,10.67
2017-06-15T19:03:21.715Z,11.43
2017-06-15T19:05:50.593Z,10.73
2017-06-15T19:08:19.424Z,10.20
2017-06-15T19:10:48.276Z,10.67
2017-06-15T19:13:17.156Z,11.50
2017-06-15T19:15:46.012Z,10.73
2017-06-15T19:18:14.967Z,9.53
2017-06-15T19:20:43.830Z,10.67
2017-06-15T19:23:12.699Z,10.43
2017-06-15T19:25:42.559Z,9.27
2017-06-15T19:28:11.426Z,10.43
2017-06-15T19:30:40.260Z,10.70
2017-06-15T19:33:09.117Z,10.70
2017-06-15T19:35:38.130Z,10.30
2017-06-15T19:38:06.962Z,11.27
2017-06-15T19:40:35.825Z,10.60
2017-06-15T19:43:04.735Z,9.80
2017-06-15T19:45:33.546Z,10.20
2017-06-15T19:48:02.396Z,9.53
2017-06-15T19:50:31.315Z,7.43
2017-06-15T19:53:00.153Z,7.27
2017-06-15T19:55:29.727Z,7.30
2017-06-15T19:57:58.530Z,7.50
2017-06-15T20:00:27.449Z,6.30
2017-06-15T20:02:56.289Z,5.77
2017-06-15T20:05:25.099Z,5.93
2017-06-15T20:07:53.906Z,5.20
2017-06-15T20:10:22.757Z,5.33
2017-06-15T20:12:51.599Z,4.63
2017-06-15T20:15:20.446Z,4.83
2017-06-15T20:17:49.378Z,5.27
2017-06-15T20:20:18.177Z,5.90
2017-06-15T20:22:47.023Z,5.07
2017-06-15T20:25:15.813Z,4.90
2017-06-15T20:27:44.656Z,5.30
2017-06-15T20:30:13.487Z,5.10
2017-06-15T20:32:42.299Z,4.47
2017-06-15T20:35:11.148Z,4.90
2017-06-15T20:37:39.968Z,4.63
2017-06-15T20:40:08.793Z,5.17
2017-06-15T20:42:38.160Z,4.53
2017-06-15T20:45:06.991Z,4.23
2017-06-15T20:47:35.804Z,4.60
2017-06-15T20:50:04.754Z,5.10
2017-06-15T20:52:33.559Z,4.97
2017-06-15T20:55:02.986Z,4.60
2017-06-15T20:57:31.821Z,4.80
2017-06-15T21:00:00.678Z,5.00
2017-06-15T21:02:29.622Z,4.70
2017-06-15T21:04:58.458Z,4.30
2017-06-15T21:07:27.266Z,3.80
2017-06-15T21:09:56.096Z,5.10
2017-06-15T21:12:24.899Z,4.47
2017-06-15T21:14:53.728Z,4.70
2017-06-15T21:17:22.527Z,4.00
2017-06-15T21:19:51.503Z,4.13
2017-06-15T21:22:20.326Z,5.20
2017-06-15T21:24:49.150Z,3.80
2017-06-15T21:27:18.036Z,4.10
2017-06-15T21:29:46.839Z,3.93
2017-06-15T21:32:15.704Z,3.50
2017-06-15T21:34:44.502Z,3.40
2017-06-15T21:37:13.304Z,3.30
2017-06-15T21:39:42.196Z,3.30
2017-06-15T21:42:11.000Z,2.93
2017-06-15T21:44:39.818Z,3.30
2017-06-15T21:47:08.644Z,2.90
2017-06-15T21:49:37.447Z,2.90
2017-06-15T21:52:06.291Z,3.10
2017-06-15T21:54:35.138Z,3.10
2017-06-15T21:57:03.954Z,3.10
2017-06-15T21:59:32.788Z,2.60
2017-06-15T22:02:01.700Z,3.17
2017-06-15T22:04:30.524Z,3.10
2017-06-15T22:06:59.360Z,3.40
2017-06-15T22:09:28.198Z,3.20
2017-06-15T22:11:56.998Z,3.30
2017-06-15T22:14:25.800Z,3.20
2017-06-15T22:16:54.635Z,3.10
2017-06-15T22:19:23.435Z,3.20
2017-06-15T22:21:52.242Z,3.47
2017-06-15T22:24:21.071Z,3.27
2017-06-15T22:26:49.881Z,3.53
2017-06-15T22:29:18.815Z,3.20
2017-06-15T22:31:47.688Z,3.80
2017-06-15T22:34:16.482Z,3.90
2017-06-15T22:36:45.314Z,3.67
2017-06-15T22:39:14.117Z,3.70
2017-06-15T22:41:42.931Z,3.83
2017-06-15T22:44:11.762Z,3.40
2017-06-15T22:46:40.562Z,3.80
2017-06-15T22:49:09.364Z,3.90
2017-06-15T22:51:38.253Z,3.80
2017-06-15T22:54:07.069Z,3.37
2017-06-15T22:56:35.915Z,4.10
2017-06-15T22:59:04.720Z,3.67
2017-06-15T23:01:33.537Z,4.17
2017-06-15T23:04:02.366Z,4.27
2017-06-15T23:06:31.171Z,4.27
2017-06-15T23:08:59.971Z,3.83
2017-06-15T23:11:28.808Z,4.10
2017-06-15T23:13:57.611Z,4.00
2017-06-15T23:16:26.424Z,3.90
2017-06-15T23:18:55.247Z,4.07
2017-06-15T23:21:24.127Z,3.73
2017-06-15T23:23:52.947Z,3.90
2017-06-15T23:26:21.868Z,4.30
2017-06-15T23:28:50.761Z,3.90
2017-06-15T23:31:19.614Z,4.20
2017-06-15T23:33:48.421Z,3.90
2017-06-15T23:36:17.264Z,3.50
2017-06-15T23:38:46.062Z,3.63
2017-06-15T23:41:14.879Z,4.17
2017-06-15T23:43:43.700Z,4.63
2017-06-15T23:46:12.642Z,4.50
2017-06-15T23:48:41.471Z,4.40
2017-06-15T23:51:10.271Z,4.20
2017-06-15T23:53:39.075Z,3.90
2017-06-15T23:56:07.926Z,4.20
2017-06-15T23:58:36.731Z,4.63
